Latest Weather Observations for Cloncurry

IDQ60801

Issued at 1:12 pm EST Friday 16 November 2018 (issued every 10 minutes, with the page automatically refreshed every 10 minutes)

About weather observations | Map of weather stations | Latest weather observations for QLD | Other Formats
Station Details ID: 029141 Name: CLONCURRY AIRPORT Lat: -20.67 Lon: 140.50 Height: 186.0 m
Data from the previous 72 hours. | See also: Recent months at Cloncurry
Date/Time
EST
Temp
°C
App
Temp
°C
Dew
Point
°C
Rel
Hum
%
Delta-T
°C
Wind Press
QNH
hPa
Press
MSL
hPa
Rain since
9am
mm
Dir  Spd
km/h
Gust
km/h
Spd
kts
Gust
kts
16/01:00pm 37.2 34.9 11.9 22 15.3 NNE 15 32 8 17 1011.2 1009.8 0.0
16/12:30pm 36.7 33.8 12.2 23 14.8 N 19 30 10 16 1011.7 1010.4 0.0
16/12:00pm 35.7 32.7 13.8 27 13.5 N 22 32 12 17 1012.3 1011.0 0.0
16/11:30am 35.4 33.1 14.6 28 13.0 N 20 28 11 15 1012.7 1011.4 0.0
16/11:00am 35.3 33.5 15.6 31 12.5 N 19 30 10 16 1013.2 1011.9 0.0
16/10:30am 34.8 33.3 15.2 31 12.3 N 17 24 9 13 1013.8 1012.4 0.0
16/10:00am 33.0 30.9 13.6 31 11.8 NNE 17 28 9 15 1013.9 1012.5 0.0
16/09:30am 32.9 30.8 13.5 30 11.8 NNE 17 26 9 14 1014.1 1012.7 0.0
16/09:00am 32.3 29.7 12.0 29 12.1 NE 17 26 9 14 1014.0 1012.6 2.0
16/08:30am 31.8 29.6 12.1 30 11.7 NE 15 28 8 15 1013.9 1012.5 2.0
16/08:00am 30.2 30.5 15.9 42 8.9 SSW 9 13 5 7 1013.7 1012.3 2.0
16/07:30am 28.0 29.0 18.7 57 6.0 SSW 11 13 6 7 1013.1 1011.8 2.0
16/07:00am 26.4 28.3 19.0 63 4.8 SSW 7 9 4 5 1012.7 1011.4 1.8
16/06:30am 24.6 26.2 19.2 72 3.5 SSW 9 11 5 6 1012.3 1011.0 1.8
16/06:00am 24.6 25.7 18.8 70 3.7 SSW 11 13 6 7 1012.0 1010.7 1.8
16/05:30am 24.4 25.9 19.0 72 3.5 SSW 9 11 5 6 1011.6 1010.3 1.8
16/05:00am 24.4 25.7 19.2 73 3.4 SSW 11 13 6 7 1011.4 1010.0 1.8
16/04:30am 24.7 25.6 19.3 72 3.5 SSW 13 13 7 7 1011.1 1009.7 1.8
16/04:00am 24.8 26.9 19.4 72 3.5 SW 7 9 4 5 1010.8 1009.4 1.8
16/03:30am 24.8 27.1 19.4 72 3.5 SW 6 9 3 5 1010.6 1009.2 1.8
16/03:00am 25.5 29.4 20.3 73 3.4 CALM 0 0 0 0 1010.7 1009.3 1.8
16/02:30am 25.3 27.8 19.9 72 3.5 SW 6 9 3 5 1010.7 1009.3 1.8
16/02:00am 26.4 28.9 19.8 67 4.3 WSW 6 9 3 5 1010.8 1009.4 1.8
16/01:30am 26.1 28.9 20.4 71 3.8 WSW 6 7 3 4 1011.0 1009.6 1.8
16/01:00am 26.9 28.6 19.3 63 4.9 W 9 11 5 6 1011.3 1009.9 1.8
16/12:30am 27.1 29.2 19.4 62 5.0 NNW 7 9 4 5 1011.6 1010.3 1.8
16/12:00am 27.3 29.1 19.6 62 5.0 NNW 9 11 5 6 1011.8 1010.5 1.8
 
Date/Time
EST
Temp
°C
App
Temp
°C
Dew
Point
°C
Rel
Hum
%
Delta-T
°C
Wind Press
QNH
hPa
Press
MSL
hPa
Rain since
9am
mm
Dir  Spd
km/h
Gust
km/h
Spd
kts
Gust
kts
15/11:30pm 27.4 30.1 20.7 67 4.4 S 7 9 4 5 1011.9 1010.6 1.8
15/11:00pm 27.8 31.0 21.6 69 4.2 S 7 9 4 5 1012.0 1010.7 1.8
15/10:30pm 29.3 31.8 20.2 58 6.0 S 7 7 4 4 1012.1 1010.8 1.8
15/10:00pm 28.6 31.7 21.4 65 4.8 S 7 9 4 5 1012.2 1010.9 1.8
15/09:30pm 29.0 33.6 21.7 64 4.9 CALM 0 0 0 0 1011.9 1010.6 1.8
15/09:00pm 29.4 33.1 22.6 67 4.7 S 7 7 4 4 1011.7 1010.4 1.8
15/08:30pm 30.3 33.3 18.4 49 7.7 CALM 0 0 0 0 1011.5 1010.2 1.8
15/08:00pm 30.8 33.1 20.7 55 6.8 S 9 9 5 5 1011.4 1010.0 1.8
15/07:30pm 31.8 34.4 20.4 51 7.6 S 7 9 4 5 1011.3 1009.9 1.8
15/07:00pm 33.1 34.2 16.5 37 10.6 S 6 9 3 5 1011.0 1009.6 1.8
15/06:30pm 33.1 34.3 17.3 39 10.2 SW 7 9 4 5 1010.7 1009.3 1.8
15/06:00pm 33.4 33.8 16.3 36 10.9 SW 9 9 5 5 1010.5 1009.1 1.8
15/05:30pm 33.0 35.0 19.1 43 9.2 SW 7 9 4 5 1010.2 1008.8 1.8
15/05:00pm 30.7 29.8 18.1 47 8.2 SW 20 30 11 16 1010.4 1009.0 1.8
15/04:30pm 28.8 24.3 18.3 53 6.8 S 39 56 21 30 1011.4 1010.0 1.4
15/04:29pm 29.3 23.8 16.8 47 7.9 S 41 56 22 30 1011.3 1009.9 1.2
15/04:26pm 28.0 20.9 15.0 45 7.9 SSE 46 59 25 32 1011.2 1009.8 0.2
15/04:24pm 28.8 22.2 15.3 43 8.3 SE 44 59 24 32 1011.0 1009.6 0.0
15/04:14pm 35.1 32.1 12.7 26 13.6 SE 20 52 11 28 1010.4 1009.0 0.0
15/04:00pm 36.7 35.1 11.5 22 15.1 NW 11 19 6 10 1010.2 1008.8 0.0
15/03:30pm 36.9 35.0 11.7 22 15.2 NE 13 19 7 10 1010.3 1008.9 0.0
15/03:00pm 37.3 36.1 12.7 23 15.1 NNW 11 20 6 11 1010.4 1009.0 0.0
15/02:30pm 36.7 35.0 13.5 25 14.3 NNE 15 20 8 11 1011.0 1009.6 0.0
15/02:00pm 36.6 34.6 14.0 26 14.1 NE 17 24 9 13 1011.4 1010.0 0.0
15/01:30pm 35.9 34.3 14.0 27 13.6 NNE 15 24 8 13 1011.8 1010.5 0.0
15/01:00pm 36.7 34.6 14.6 26 13.9 N 19 32 10 17 1012.2 1010.9 0.0
15/12:30pm 35.6 33.9 14.8 28 13.0 NNE 17 26 9 14 1012.6 1011.3 0.0
15/12:00pm 35.5 34.0 15.3 30 12.7 NNE 17 26 9 14 1012.9 1011.6 0.0
15/11:30am 35.7 32.7 12.6 25 14.0 NE 20 28 11 15 1013.2 1011.9 0.0
15/11:00am 35.4 32.5 12.4 25 13.9 NE 19 26 10 14 1013.4 1012.1 0.0
15/10:30am 35.7 33.5 13.2 26 13.8 NE 17 20 9 11 1013.6 1012.2 0.0
15/10:00am 34.1 31.1 11.9 26 13.3 NE 19 26 10 14 1013.9 1012.5 0.0
15/09:30am 33.4 30.4 11.9 27 12.8 ENE 19 26 10 14 1013.8 1012.4 0.0
15/09:00am 32.0 28.7 11.7 28 12.0 ENE 20 28 11 15 1014.0 1012.6 0.0
15/08:30am 32.2 28.7 10.8 27 12.5 ENE 20 28 11 15 1013.8 1012.4 0.0
15/08:00am 31.9 28.3 10.6 27 12.4 E 20 30 11 16 1013.3 1012.0 0.0
15/07:30am 30.8 26.9 9.6 27 12.0 ESE 20 26 11 14 1013.0 1011.7 0.0
15/07:00am 29.4 25.8 10.5 31 10.8 ESE 20 26 11 14 1012.6 1011.3 0.0
15/06:30am 28.2 25.1 11.7 36 9.6 ESE 19 24 10 13 1012.2 1010.9 0.0
15/06:00am 27.1 25.7 13.4 42 8.1 ESE 13 17 7 9 1011.7 1010.4 0.0
15/05:30am 27.4 25.5 14.1 44 8.0 ESE 17 20 9 11 1011.2 1009.8 0.0
15/05:00am 27.1 27.2 15.5 49 7.1 SE 9 13 5 7 1010.5 1009.1 0.0
15/04:30am 29.0 28.2 15.2 43 8.5 SE 13 17 7 9 1010.2 1008.8 0.0
15/04:00am 27.6 28.0 17.2 53 6.6 SSE 11 11 6 6 1010.0 1008.6 0.0
15/03:30am 28.4 29.7 17.6 52 6.9 SSE 7 9 4 5 1009.8 1008.4 0.0
15/03:00am 28.6 30.0 18.7 55 6.4 SSE 9 11 5 6 1009.6 1008.2 0.0
15/02:30am 28.1 30.7 20.4 63 5.1 SSE 7 9 4 5 1009.7 1008.3 0.0
15/02:00am 28.8 31.2 19.7 58 6.0 SSE 6 7 3 4 1009.9 1008.5 0.0
15/01:30am 28.6 31.1 20.3 60 5.5 SSE 7 9 4 5 1010.1 1008.7 0.0
15/01:00am 28.3 30.8 20.3 62 5.3 SE 7 9 4 5 1010.3 1008.9 0.0
15/12:30am 28.6 30.7 20.1 60 5.6 SE 9 9 5 5 1010.5 1009.1 0.0
15/12:00am 29.4 32.2 19.7 56 6.4 SE 4 9 2 5 1010.9 1009.5 0.0
 
Date/Time
EST
Temp
°C
App
Temp
°C
Dew
Point
°C
Rel
Hum
%
Delta-T
°C
Wind Press
QNH
hPa
Press
MSL
hPa
Rain since
9am
mm
Dir  Spd
km/h
Gust
km/h
Spd
kts
Gust
kts
14/11:30pm 29.0 32.4 19.3 55 6.3 CALM 0 0 0 0 1010.7 1009.3 0.0
14/11:00pm 29.3 32.0 20.2 58 6.0 SE 6 7 3 4 1010.4 1009.0 0.0
14/10:30pm 30.6 32.1 19.0 50 7.6 SE 9 11 5 6 1010.6 1009.2 0.0
14/10:00pm 31.0 34.3 19.0 48 7.9 CALM 0 0 0 0 1010.4 1009.0 0.0
14/09:30pm 30.7 33.0 19.4 51 7.4 NNE 6 6 3 3 1010.4 1009.0 0.0
14/09:00pm 31.8 33.4 19.1 47 8.4 NNE 9 9 5 5 1010.1 1008.7 0.0
14/08:30pm 32.0 35.1 18.6 45 8.8 CALM 0 0 0 0 1010.1 1008.7 0.0
14/08:00pm 33.3 34.2 16.6 36 10.7 NNE 7 9 4 5 1009.8 1008.4 0.0
14/07:30pm 33.9 33.7 15.8 33 11.4 NNE 11 13 6 7 1009.4 1008.0 0.0
14/07:00pm 34.4 33.5 15.8 33 11.8 NE 15 19 8 10 1009.2 1007.8 0.0
14/06:30pm 34.7 34.1 15.6 32 12.1 NE 13 17 7 9 1008.8 1007.4 0.0
14/06:00pm 35.4 34.1 15.7 31 12.5 NE 17 22 9 12 1008.6 1007.2 0.0
14/05:30pm 35.2 34.4 16.0 31 12.2 NE 15 20 8 11 1008.7 1007.3 0.0
14/05:00pm 35.1 34.8 15.4 30 12.4 ENE 11 20 6 11 1008.7 1007.3 0.0
14/04:30pm 35.8 36.5 15.5 29 12.9 E 6 17 3 9 1008.7 1007.3 0.0
14/04:00pm 35.8 35.9 16.5 31 12.4 E 11 17 6 9 1009.1 1007.7 0.0
14/03:30pm 35.7 36.7 16.9 32 12.1 N 7 15 4 8 1009.3 1007.9 0.0
14/03:00pm 34.8 35.3 16.6 33 11.7 NNE 9 17 5 9 1009.6 1008.2 0.0
14/02:30pm 34.2 34.5 17.0 36 11.1 NE 11 20 6 11 1010.0 1008.6 0.0
14/02:00pm 33.6 33.6 17.3 37 10.5 NNE 13 24 7 13 1010.4 1009.0 0.0
14/01:30pm 33.6 33.6 17.3 37 10.5 NNW 13 20 7 11 1010.9 1009.5 0.0
14/01:00pm 32.6 33.3 18.0 41 9.5 N 11 17 6 9 1011.3 1009.9 0.0
14/12:30pm 32.0 32.1 17.5 42 9.3 NNE 13 24 7 13 1011.6 1010.3 0.0
14/12:00pm 32.4 32.8 18.9 44 8.9 N 15 24 8 13 1011.8 1010.5 0.0
14/11:30am 31.3 31.5 19.3 49 7.9 N 17 26 9 14 1012.1 1010.8 0.0
14/11:00am 30.4 30.3 20.0 53 6.9 N 20 28 11 15 1012.4 1011.1 0.0
14/10:30am 30.8 31.1 18.8 48 7.8 NNE 15 22 8 12 1012.5 1011.2 0.0
14/10:00am 30.2 31.7 18.9 50 7.4 N 9 15 5 8 1012.4 1011.1 0.0
14/09:30am 29.5 32.6 19.5 55 6.6 SW 2 9 1 5 1012.3 1011.0 0.0
14/09:00am 28.0 30.6 19.2 58 5.7 SW 4 7 2 4 1012.3 1011.0 8.0
14/08:30am 26.5 28.5 19.9 67 4.3 SW 9 13 5 7 1012.2 1010.9 7.8
14/08:00am 25.4 26.6 20.0 72 3.5 SW 13 15 7 8 1012.2 1010.9 7.8
14/07:30am 24.4 26.5 20.1 77 2.8 WSW 9 13 5 7 1012.1 1010.8 7.8
14/07:00am 24.1 26.7 20.4 80 2.4 WSW 7 9 4 5 1011.7 1010.4 7.8
14/06:30am 23.8 27.3 21.1 85 1.8 WSW 4 7 2 4 1011.6 1010.3 7.8
14/06:00am 23.7 26.7 20.8 84 1.9 WSW 6 7 3 4 1011.0 1009.6 7.8
14/05:30am 23.6 27.6 20.5 83 2.0 CALM 0 0 0 0 1010.7 1009.3 7.8
14/05:00am 23.6 26.0 20.9 85 1.8 NW 9 15 5 8 1011.2 1009.8 7.8
14/04:30am 23.6 25.2 20.7 84 1.9 NW 13 19 7 10 1011.0 1009.6 7.8
14/04:00am 23.3 23.8 20.8 86 1.6 NW 19 24 10 13 1010.3 1008.9 7.8
14/03:30am 23.6 23.4 20.5 83 2.0 NNW 22 26 12 14 1009.9 1008.5 7.8
14/03:00am 23.6 24.1 21.1 86 1.7 N 20 28 11 15 1010.5 1009.1 7.8
14/02:30am 23.6 25.1 21.3 87 1.5 NNE 15 17 8 9 1010.6 1009.2 7.8
14/02:00am 23.7 26.4 21.4 87 1.5 E 9 13 5 7 1011.5 1010.2 7.6
14/01:30am 23.3 23.9 21.0 87 1.5 SW 19 24 10 13 1012.3 1011.0 7.4
14/01:00am 23.4 24.7 20.9 86 1.6 SSW 15 19 8 10 1011.9 1010.6 7.4
14/12:30am 23.4 25.4 20.7 85 1.8 ENE 11 19 6 10 1011.0 1009.6 7.2
14/12:00am 23.1 25.0 20.6 86 1.6 SSE 11 17 6 9 1012.3 1011.0 6.4
 
Date/Time
EST
Temp
°C
App
Temp
°C
Dew
Point
°C
Rel
Hum
%
Delta-T
°C
Wind Press
QNH
hPa
Press
MSL
hPa
Rain since
9am
mm
Dir  Spd
km/h
Gust
km/h
Spd
kts
Gust
kts
13/11:30pm 23.0 22.9 20.7 87 1.5 S 22 30 12 16 1013.0 1011.7 4.4
13/11:00pm 22.9 20.6 20.6 87 1.5 S 33 44 18 24 1012.8 1011.5 2.0
13/10:30pm 23.5 18.6 20.2 82 2.2 S 46 61 25 33 1012.2 1010.9 0.0
13/10:00pm 24.7 19.1 19.5 73 3.4 S 48 69 26 37 1011.6 1010.3 0.0
13/09:31pm 27.1 21.6 18.9 61 5.3 SSW 46 65 25 35 1011.4 1010.0 0.0
13/09:30pm 27.2 21.3 19.0 61 5.3 SSW 48 65 26 35 1011.4 1010.0 0.0
13/09:09pm 29.0 24.8 17.2 49 7.5 SSW 35 76 19 41 1010.1 1008.7 0.0
13/09:08pm 29.8 26.0 16.6 45 8.3 SSW 32 76 17 41 1010.0 1008.6 0.0
13/09:06pm 30.5 28.0 16.1 41 9.0 SSW 24 50 13 27 1009.8 1008.4 0.0
13/09:00pm 30.5 30.1 16.1 41 9.0 SW 13 22 7 12 1008.9 1007.5 0.0
13/08:30pm 30.5 30.8 16.1 41 9.0 NNW 9 13 5 7 1008.3 1006.9 0.0
13/08:00pm 30.4 30.2 16.8 44 8.6 NNW 13 17 7 9 1008.3 1006.9 0.0
13/07:30pm 28.5 28.9 18.9 56 6.2 WNW 15 19 8 10 1008.0 1006.6 0.0
13/07:00pm 28.3 25.3 19.0 57 6.1 NNW 33 56 18 30 1007.2 1005.9 0.0
13/06:59pm 28.2 24.4 18.9 57 6.0 NNW 37 56 20 30 1007.2 1005.9 0.0
13/06:45pm 28.9 26.3 19.5 57 6.2 NW 32 48 17 26 1006.9 1005.6 0.0
13/06:30pm 28.9 26.9 19.2 55 6.3 WNW 28 43 15 23 1007.0 1005.7 0.0
13/06:16pm 30.0 26.6 16.8 45 8.4 W 30 48 16 26 1007.1 1005.8 0.0
13/06:00pm 31.7 29.5 14.4 35 10.7 NNE 19 43 10 23 1007.5 1006.2 0.0
13/05:59pm 32.1 30.2 14.3 34 10.9 NNE 17 43 9 23 1007.5 1006.2 0.0
13/05:30pm 37.0 34.4 13.7 25 14.4 NE 20 28 11 15 1006.4 1005.0 0.0
13/05:00pm 37.9 35.3 13.2 23 15.3 NNE 19 28 10 15 1005.7 1004.3 0.0
13/04:30pm 37.8 35.2 13.8 24 14.9 NE 20 32 11 17 1006.0 1004.6 0.0
13/04:00pm 38.3 36.2 13.5 23 15.4 N 17 24 9 13 1006.1 1004.7 0.0
13/03:30pm 37.4 35.6 13.4 24 14.8 N 15 28 8 15 1006.7 1005.4 0.0
13/03:00pm 38.1 36.5 14.0 24 15.1 N 15 28 8 15 1007.1 1005.8 0.0
13/02:30pm 36.5 35.1 13.3 25 14.3 NE 13 26 7 14 1007.7 1006.4 0.0
13/02:00pm 36.8 34.7 13.5 24 14.4 NNW 17 33 9 18 1008.3 1006.9 0.0
13/01:30pm 35.9 33.2 13.4 26 13.8 N 20 33 11 18 1008.9 1007.5 0.0

Other Formats:

Comma delimited format used in spreadsheet applications
http://www.bom.gov.au/fwo/IDQ60801/IDQ60801.94335.axf

JavaScript Object Notation format (JSON) in row-major order
http://www.bom.gov.au/fwo/IDQ60801/IDQ60801.94335.json